Latest Weather Observations for Witchcliffe

IDW60801

Issued at 6:23 am WST Friday 22 October 2021 (issued every 10 minutes, with the page automatically refreshed every 10 minutes)

About weather observations | Map of weather stations | Latest weather observations for WA | Other Formats
Station Details ID: 009746 Name: WITCHCLIFFE Lat: -34.03 Lon: 115.10 Height: 80.0 m
Data from the previous 72 hours. | See also: Recent months at Witchcliffe
Date/Time
WST
Temp
°C
App
Temp
°C
Dew
Point
°C
Rel
Hum
%
Delta-T
°C
Wind Press
QNH
hPa
Press
MSL
hPa
Rain since
9am
mm
Dir  Spd
km/h
Gust
km/h
Spd
kts
Gust
kts
22/06:00am 7.5 6.8 7.1 97 0.2 CALM 0 0 0 0 1023.5 1023.4 0.8
22/05:30am 7.8 7.2 7.4 97 0.2 CALM 0 0 0 0 1023.1 1023.0 0.8
22/05:00am 8.4 8.0 8.1 98 0.1 CALM 0 0 0 0 1022.9 1022.8 0.8
22/04:30am 7.6 6.9 7.0 96 0.3 CALM 0 0 0 0 1022.5 1022.4 0.8
22/04:00am 7.8 7.2 7.2 96 0.3 CALM 0 0 0 0 1022.2 1022.1 0.8
22/03:30am 7.6 6.9 6.9 95 0.3 CALM 0 0 0 0 1021.9 1021.8 0.8
22/03:00am 7.9 7.2 7.0 94 0.4 CALM 0 0 0 0 1021.8 1021.7 0.8
22/02:30am 8.4 7.8 7.3 93 0.5 CALM 0 0 0 0 1021.6 1021.5 0.8
22/02:00am 8.4 7.8 7.2 92 0.6 CALM 0 0 0 0 1021.7 1021.6 0.8
22/01:30am 8.8 8.2 7.4 91 0.7 CALM 0 0 0 0 1021.7 1021.6 0.8
22/01:00am 8.9 8.3 7.4 90 0.7 CALM 0 0 0 0 1021.7 1021.6 0.8
22/12:30am 9.7 9.2 7.8 88 0.9 CALM 0 0 0 0 1021.5 1021.4 0.8
22/12:00am 10.8 10.5 8.7 87 1.0 CALM 0 0 0 0 1021.3 1021.2 0.8
 
Date/Time
WST
Temp
°C
App
Temp
°C
Dew
Point
°C
Rel
Hum
%
Delta-T
°C
Wind Press
QNH
hPa
Press
MSL
hPa
Rain since
9am
mm
Dir  Spd
km/h
Gust
km/h
Spd
kts
Gust
kts
21/11:30pm 11.6 10.3 9.2 85 1.2 SW 6 11 3 6 1021.2 1021.1 0.8
21/11:00pm 12.3 11.1 10.2 87 1.1 WSW 7 11 4 6 1021.0 1020.9 0.8
21/10:30pm 12.5 11.4 10.6 88 1.0 SW 7 13 4 7 1021.1 1021.0 0.8
21/10:00pm 12.6 11.1 10.5 87 1.1 WSW 9 22 5 12 1021.0 1020.9 0.8
21/09:30pm 12.6 11.0 10.3 86 1.2 WSW 9 15 5 8 1020.9 1020.8 0.8
21/09:00pm 13.2 11.0 10.7 85 1.3 SW 13 24 7 13 1020.8 1020.7 0.6
21/08:30pm 13.5 12.6 10.5 82 1.6 WNW 6 13 3 7 1020.4 1020.3 0.2
21/08:00pm 13.1 12.3 9.7 80 1.7 WSW 4 9 2 5 1020.2 1020.1 0.2
21/07:30pm 13.1 11.3 9.4 78 1.9 WSW 9 15 5 8 1019.9 1019.9 0.2
21/07:00pm 13.2 11.6 10.2 82 1.6 WSW 9 15 5 8 1019.6 1019.6 0.2
21/06:30pm 13.4 12.1 9.8 79 1.9 WSW 7 19 4 10 1019.1 1019.1 0.2
21/06:00pm 14.9 12.1 9.9 72 2.6 W 15 20 8 11 1018.9 1018.9 0.2
21/05:30pm 15.3 12.5 9.9 70 2.8 W 15 32 8 17 1018.5 1018.5 0.2
21/05:00pm 15.7 13.2 9.8 68 3.1 W 13 24 7 13 1018.0 1018.0 0.2
21/04:30pm 16.1 12.7 9.1 63 3.6 WSW 17 26 9 14 1017.8 1017.8 0.2
21/04:00pm 16.3 12.2 8.8 61 3.9 WSW 20 32 11 17 1017.4 1017.4 0.2
21/03:30pm 16.6 12.4 9.8 64 3.6 WSW 22 32 12 17 1017.1 1017.1 0.2
21/03:00pm 16.0 11.9 8.5 61 3.8 WSW 20 33 11 18 1016.8 1016.8 0.2
21/02:30pm 16.7 13.1 9.9 64 3.6 W 19 33 10 18 1016.6 1016.6 0.2
21/02:00pm 16.6 12.9 9.5 63 3.7 W 19 30 10 16 1016.3 1016.3 0.2
21/01:30pm 17.3 13.7 9.7 61 4.0 WSW 19 30 10 16 1016.2 1016.2 0.2
21/01:00pm 17.1 13.0 10.0 63 3.8 SW 22 37 12 20 1016.1 1016.1 0.2
21/12:30pm 16.4 11.7 9.1 62 3.8 WSW 24 37 13 20 1015.9 1015.9 0.2
21/12:00pm 16.4 12.3 10.0 66 3.4 WSW 22 39 12 21 1015.6 1015.6 0.2
21/11:30am 16.3 13.0 10.8 70 2.9 WSW 19 32 10 17 1015.5 1015.5 0.2
21/11:00am 16.3 11.8 10.2 67 3.2 WSW 24 32 13 17 1015.6 1015.6 0.2
21/10:30am 14.5 10.9 10.7 78 2.0 W 20 39 11 21 1015.7 1015.7 0.2
21/10:00am 15.5 11.5 9.2 66 3.2 WSW 20 30 11 16 1015.4 1015.4 0.0
21/09:30am 15.7 11.8 9.4 66 3.3 WSW 20 28 11 15 1015.2 1015.2 0.0
21/09:00am 15.4 11.5 9.5 68 3.1 WSW 20 33 11 18 1015.1 1015.1 14.4
21/08:30am 14.8 10.8 9.0 68 3.0 W 20 35 11 19 1014.7 1014.7 14.4
21/08:00am 15.7 12.1 10.0 69 3.0 WSW 19 28 10 15 1014.4 1014.4 14.4
21/07:30am 14.4 10.9 8.8 69 2.8 WSW 17 28 9 15 1013.9 1013.8 14.4
21/07:00am 14.3 10.6 7.8 65 3.2 W 17 28 9 15 1013.6 1013.5 14.4
21/06:30am 13.6 10.5 8.9 73 2.4 WSW 15 28 8 15 1013.1 1013.0 14.4
21/06:00am 13.1 9.8 8.2 72 2.4 W 15 30 8 16 1012.7 1012.6 14.4
21/05:30am 13.3 9.9 9.2 76 2.1 W 17 32 9 17 1012.4 1012.3 14.4
21/05:00am 12.6 10.2 8.5 76 2.0 W 11 19 6 10 1012.0 1011.9 14.4
21/04:30am 13.0 10.3 10.2 83 1.5 W 15 30 8 16 1011.6 1011.5 14.4
21/04:00am 12.9 10.9 11.5 91 0.7 W 13 22 7 12 1011.2 1011.1 14.4
21/03:30am 12.1 10.7 10.8 92 0.7 WNW 9 17 5 9 1011.0 1010.9 14.4
21/03:00am 12.3 8.9 10.7 90 0.8 WSW 19 28 10 15 1011.3 1011.2 14.2
21/02:30am 12.8 10.6 10.9 88 1.0 WNW 13 19 7 10 1011.0 1010.9 13.6
21/02:00am 12.6 8.9 9.4 81 1.6 WNW 19 28 10 15 1011.1 1011.0 13.6
21/01:30am 13.9 10.7 8.3 69 2.8 W 15 24 8 13 1010.9 1010.8 13.4
21/01:00am 13.6 11.3 8.9 73 2.4 W 11 20 6 11 1011.1 1011.0 13.4
21/12:30am 12.8 10.3 8.3 74 2.2 W 11 17 6 9 1011.3 1011.2 13.4
21/12:00am 12.8 9.5 7.9 72 2.4 W 15 28 8 15 1011.4 1011.3 13.4
 
Date/Time
WST
Temp
°C
App
Temp
°C
Dew
Point
°C
Rel
Hum
%
Delta-T
°C
Wind Press
QNH
hPa
Press
MSL
hPa
Rain since
9am
mm
Dir  Spd
km/h
Gust
km/h
Spd
kts
Gust
kts
20/11:30pm 12.9 9.5 7.8 71 2.5 W 15 26 8 14 1011.3 1011.2 13.4
20/11:00pm 13.0 9.8 8.5 74 2.3 WNW 15 20 8 11 1011.4 1011.3 13.4
20/10:30pm 12.9 9.8 9.0 77 2.0 W 15 24 8 13 1011.5 1011.4 13.4
20/10:00pm 13.0 11.3 10.0 82 1.6 WNW 9 15 5 8 1011.4 1011.3 13.4
20/09:30pm 14.1 11.7 9.9 76 2.2 W 13 19 7 10 1011.4 1011.3 13.4
20/09:00pm 13.7 11.3 9.9 78 2.0 W 13 22 7 12 1011.4 1011.3 13.4
20/08:30pm 13.7 11.3 10.1 79 1.9 W 13 20 7 11 1011.1 1011.0 13.4
20/08:00pm 13.6 12.0 10.2 80 1.8 W 9 17 5 9 1010.7 1010.6 13.4
20/07:30pm 14.2 12.0 10.8 80 1.8 WNW 13 22 7 12 1010.4 1010.3 13.4
20/07:00pm 14.5 12.3 10.9 79 1.9 WNW 13 19 7 10 1010.1 1010.0 13.4
20/06:30pm 14.9 12.7 10.7 76 2.2 WNW 13 20 7 11 1009.7 1009.6 13.4
20/06:00pm 15.4 13.3 11.2 76 2.3 WNW 13 20 7 11 1009.6 1009.5 13.4
20/05:30pm 16.1 12.9 11.1 72 2.7 W 19 24 10 13 1009.2 1009.1 13.4
20/05:00pm 16.0 13.9 11.2 73 2.6 W 13 20 7 11 1008.8 1008.7 13.4
20/04:30pm 16.0 13.3 11.6 75 2.4 W 17 28 9 15 1008.7 1008.6 13.4
20/04:00pm 16.0 13.5 12.4 79 2.0 W 17 28 9 15 1008.5 1008.4 13.4
20/03:30pm 16.4 14.5 14.1 86 1.3 W 17 26 9 14 1008.2 1008.1 13.4
20/03:00pm 15.9 13.8 13.7 87 1.2 W 17 32 9 17 1008.1 1008.0 13.4
20/02:30pm 15.7 14.0 14.6 93 0.6 W 17 30 9 16 1007.9 1007.8 13.4
20/02:00pm 15.8 14.8 15.5 98 0.2 W 15 24 8 13 1007.9 1007.8 13.4
20/01:30pm 15.0 13.7 14.8 99 0.1 WSW 15 22 8 12 1007.8 1007.7 13.4
20/01:00pm 14.4 10.7 13.9 97 0.3 WSW 26 39 14 21 1007.5 1007.4 12.8
20/12:30pm 14.6 11.4 14.3 98 0.2 WSW 24 46 13 25 1007.4 1007.3 12.4
20/12:24pm 14.4 11.1 13.9 97 0.3 WSW 24 46 13 25 1007.4 1007.3 11.6
20/12:00pm 15.0 11.9 14.4 96 0.3 WNW 24 46 13 25 1007.2 1007.1 9.2
20/11:33am 15.9 12.1 14.8 93 0.6 WNW 28 50 15 27 1006.7 1006.7 4.0
20/11:30am 16.0 12.3 15.0 94 0.6 NW 28 43 15 23 1006.7 1006.7 4.0
20/11:00am 15.3 12.0 15.0 98 0.2 NW 26 44 14 24 1007.2 1007.1 4.0
20/10:30am 14.8 12.0 14.3 97 0.3 WNW 22 39 12 21 1007.2 1007.1 3.6
20/10:21am 14.4 10.3 13.8 96 0.3 WNW 28 46 15 25 1007.2 1007.1 3.6
20/10:00am 14.8 12.2 13.8 94 0.6 WNW 20 39 11 21 1007.2 1007.1 2.0
20/09:30am 14.5 11.0 13.5 94 0.6 WNW 24 39 13 21 1007.0 1007.0 1.0
20/09:00am 14.8 11.8 13.7 93 0.6 NW 22 37 12 20 1006.9 1006.9 17.6
20/08:30am 14.6 12.0 13.3 92 0.7 WNW 19 35 10 19 1006.7 1006.7 17.2
20/08:00am 14.4 11.0 12.6 89 1.0 WNW 22 35 12 19 1006.2 1006.2 16.8
20/07:32am 14.3 9.4 11.3 82 1.6 WNW 28 50 15 27 1006.2 1006.2 16.6
20/07:30am 14.5 10.0 11.3 81 1.7 WNW 26 50 14 27 1006.2 1006.2 16.6
20/07:00am 14.6 11.4 11.2 80 1.8 WNW 19 32 10 17 1005.7 1005.7 16.6
20/06:30am 13.7 10.3 10.5 81 1.7 WNW 19 32 10 17 1005.6 1005.6 16.6
20/06:00am 13.2 9.4 9.1 76 2.1 W 19 28 10 15 1005.6 1005.6 16.6
20/05:30am 13.4 9.3 8.5 72 2.5 W 20 32 11 17 1005.4 1005.4 16.6
20/05:00am 13.3 8.6 7.7 69 2.8 W 22 35 12 19 1005.4 1005.4 16.6
20/04:30am 12.8 8.4 6.6 66 3.0 WNW 19 41 10 22 1004.5 1004.5 16.6
20/04:00am 12.8 9.4 7.5 70 2.6 WNW 15 28 8 15 1003.9 1003.9 16.6
20/03:30am 12.7 8.1 6.7 67 2.9 W 20 37 11 20 1004.3 1004.3 16.6
20/03:00am 12.9 7.8 7.6 70 2.6 W 24 37 13 20 1004.3 1004.3 16.6
20/02:30am 12.9 8.0 8.4 74 2.2 W 24 43 13 23 1004.1 1004.1 16.6
20/02:00am 13.1 7.6 7.5 69 2.8 W 26 44 14 24 1003.8 1003.8 16.6
20/01:37am 13.0 7.2 7.9 71 2.5 W 28 46 15 25 1003.7 1003.6 16.6
20/01:30am 12.9 7.5 8.2 73 2.3 W 26 46 14 25 1003.5 1003.4 16.6
20/01:01am 12.8 7.4 9.4 80 1.7 WSW 28 48 15 26 1002.9 1002.8 16.6
20/01:00am 12.9 7.9 9.5 80 1.7 WSW 26 48 14 26 1002.8 1002.7 16.6
20/12:30am 12.8 7.0 10.9 88 1.0 W 32 52 17 28 1002.4 1002.3 16.6
20/12:00am 12.0 6.7 11.2 95 0.4 W 30 54 16 29 1002.2 1002.1 16.4
 
Date/Time
WST
Temp
°C
App
Temp
°C
Dew
Point
°C
Rel
Hum
%
Delta-T
°C
Wind Press
QNH
hPa
Press
MSL
hPa
Rain since
9am
mm
Dir  Spd
km/h
Gust
km/h
Spd
kts
Gust
kts
19/11:30pm 12.2 6.6 11.4 95 0.4 WSW 32 52 17 28 1001.6 1001.5 16.2
19/11:00pm 12.3 7.1 11.7 96 0.3 W 30 56 16 30 1000.7 1000.6 15.8
19/10:30pm 12.9 7.0 12.4 97 0.3 W 35 56 19 30 999.8 999.7 14.8
19/10:00pm 13.1 7.4 12.9 99 0.1 W 35 67 19 36 999.0 998.9 14.6
19/09:30pm 13.2 7.5 13.0 99 0.1 W 35 61 19 33 998.2 998.1 14.4
19/09:00pm 13.5 7.9 13.3 99 0.1 W 35 63 19 34 997.2 997.1 13.6
19/08:30pm 13.8 9.5 13.3 97 0.3 W 28 50 15 27 996.3 996.2 11.6
19/08:00pm 13.9 8.7 13.3 96 0.3 W 33 52 18 28 995.5 995.4 10.4
19/07:30pm 13.2 7.7 11.8 91 0.8 WNW 32 50 17 27 995.1 995.0 7.8
19/07:24pm 13.3 8.5 11.7 90 0.9 WNW 28 50 15 27 995.0 994.9 7.4
19/07:00pm 14.0 10.2 11.3 84 1.5 WNW 22 35 12 19 994.5 994.4 4.8
19/06:30pm 15.2 11.8 11.2 77 2.1 NW 20 32 11 17 993.8 993.8 4.2
19/06:00pm 15.3 11.4 10.9 75 2.4 NW 22 35 12 19 993.3 993.3 4.2
19/05:42pm 15.6 10.7 11.2 75 2.4 NW 28 46 15 25 993.3 993.3 4.2
19/05:30pm 15.4 12.1 10.8 74 2.4 NW 19 37 10 20 993.2 993.1 4.2
19/05:00pm 17.0 12.7 10.6 66 3.5 NW 24 37 13 20 993.3 993.3 4.2
19/04:30pm 17.5 12.0 12.0 70 3.0 NW 32 52 17 28 992.9 992.8 4.2
19/04:05pm 17.7 12.0 11.9 69 3.2 NW 33 52 18 28 992.8 992.7 4.2
19/04:00pm 17.5 11.5 12.0 70 3.1 NNW 35 52 19 28 992.9 992.8 4.2
19/03:30pm 17.9 10.4 10.8 63 3.8 NNW 41 59 22 32 992.9 992.8 4.2
19/03:00pm 18.3 11.4 11.6 65 3.7 NW 39 65 21 35 992.9 992.8 4.2
19/02:30pm 18.9 13.6 13.1 69 3.3 NW 33 54 18 29 992.9 992.8 4.2
19/02:00pm 18.3 14.1 13.6 74 2.7 NW 28 54 15 29 992.8 992.7 4.2
19/01:30pm 18.9 12.3 12.6 67 3.5 NW 39 61 21 33 992.7 992.6 4.2
19/01:00pm 18.6 12.3 13.5 72 2.9 NW 39 57 21 31 992.6 992.5 4.2
19/12:33pm 18.3 14.3 15.2 82 1.8 NW 30 48 16 26 992.5 992.4 4.2
19/12:30pm 18.4 14.5 15.6 84 1.7 NW 30 43 16 23 992.6 992.5 4.2
19/12:01pm 16.8 12.5 16.0 95 0.5 NW 33 52 18 28 992.5 992.4 4.2
19/12:00pm 16.6 11.9 15.8 95 0.5 NW 35 54 19 29 992.5 992.4 4.2
19/11:34am 16.1 12.2 15.6 97 0.3 N 30 54 16 29 992.1 992.0 3.8
19/11:30am 15.9 12.6 15.1 95 0.5 N 26 43 14 23 992.2 992.1 3.6
19/11:00am 16.1 11.3 14.5 90 0.9 N 33 50 18 27 992.8 992.7 0.6
19/10:30am 16.6 11.9 14.4 87 1.3 N 32 46 17 25 993.3 993.3 0.2
19/10:00am 16.3 11.2 14.8 91 0.9 N 35 54 19 29 993.2 993.1 0.2
19/09:56am 16.2 11.7 14.9 92 0.8 N 32 54 17 29 993.1 993.0 0.2
19/09:30am 15.4 12.4 14.9 97 0.3 NNE 24 35 13 19 993.2 993.1 0.2
19/09:00am 15.5 11.9 15.2 98 0.2 NNE 28 44 15 24 993.6 993.6 5.2
19/08:31am 15.5 11.9 15.3 99 0.1 N 28 46 15 25 994.6 994.5 5.0
19/08:30am 15.5 11.9 15.3 99 0.1 N 28 39 15 21 994.6 994.5 5.0
19/08:00am 15.5 11.9 15.3 99 0.1 NNE 28 50 15 27 994.5 994.4 4.8
19/07:43am 15.3 11.6 15.1 99 0.1 NNE 28 46 15 25 994.3 994.2 4.8
19/07:30am 15.2 11.5 15.0 99 0.1 NNE 28 39 15 21 994.1 994.1 4.8
19/07:00am 14.5 12.1 14.3 99 0.1 NNE 20 32 11 17 995.1 995.0 4.8
19/06:30am 14.0 12.0 13.8 99 0.1 NNE 17 24 9 13 995.9 995.8 4.8

Other formats

Comma delimited format used in spreadsheet applications
http://www.bom.gov.au/fwo/IDW60801/IDW60801.95641.axf

JavaScript Object Notation format (JSON) in row-major order
http://www.bom.gov.au/fwo/IDW60801/IDW60801.95641.json

Data quality

Most of these data are generated automatically and are frequently updated. Quality checks on data are not normally performed. It is possible for incorrect values to appear. Refer to information at About Latest Weather Observations and please check the disclaimer before using these data.